Time;durP1;ratioP1;P1;durP2;ratioP2;P2;SDS_P1;SDS_P2;PMS_P1;PMS_P2;Temp;Humidity;BMP_temperature;BMP_pressure;BME280_temperature;BME280_humidity;BME280_pressure;Samples;Min_cycle;Max_cycle;Signal;HPM_P1;HPM_P2
2024/02/23 00:01:52;;;;;;;0.90;0.70;;;;;;;9.44;68.61;94237.03;5035751;28;20215;-67
2024/02/23 00:04:20;;;;;;;1.30;0.70;;;;;;;9.44;68.39;94268.47;5043312;28;20468;-67
2024/02/23 00:06:46;;;;;;;1.40;0.90;;;;;;;9.48;68.10;94272.53;5044356;28;21092;-68
2024/02/23 00:09:11;;;;;;;1.33;0.80;;;;;;;9.40;67.89;94264.41;5041007;28;20499;-67
2024/02/23 00:11:44;;;;;;;1.77;0.90;;;;;;;9.35;67.89;94281.38;5036997;28;20305;-70
2024/02/23 00:14:10;;;;;;;1.10;0.80;;;;;;;9.24;68.84;94287.41;5037207;28;20195;-68
2024/02/23 00:16:39;;;;;;;2.43;0.90;;;;;;;9.27;69.21;94268.88;5040986;28;20437;-67
2024/02/23 00:19:05;;;;;;;1.77;0.80;;;;;;;9.07;69.62;94279.00;5044895;28;20757;-67
2024/02/23 00:21:30;;;;;;;1.00;0.70;;;;;;;9.10;69.46;94286.63;5026276;28;20476;-68
2024/02/23 00:23:56;;;;;;;1.10;0.80;;;;;;;8.98;70.36;94292.75;5042381;28;20188;-66
2024/02/23 00:26:21;;;;;;;1.00;0.70;;;;;;;9.02;69.67;94299.41;5043974;28;20641;-67
2024/02/23 00:28:46;;;;;;;1.40;0.80;;;;;;;9.05;68.44;94304.44;5051441;28;20174;-66
2024/02/23 00:31:12;;;;;;;1.93;0.70;;;;;;;9.03;68.30;94280.16;5040911;28;20199;-68
2024/02/23 00:33:37;;;;;;;2.70;0.90;;;;;;;8.97;68.13;94290.22;5043606;28;20302;-67
2024/02/23 00:36:03;;;;;;;1.10;0.90;;;;;;;9.11;67.96;94277.00;5028087;28;20187;-67
2024/02/23 00:38:28;;;;;;;1.10;0.90;;;;;;;8.89;67.89;94291.59;5048380;28;20649;-67
2024/02/23 00:40:55;;;;;;;1.80;1.00;;;;;;;9.01;68.15;94302.16;5048391;28;20210;-67
2024/02/23 00:43:20;;;;;;;1.27;0.93;;;;;;;8.84;67.87;94295.50;5042609;28;22795;-69
2024/02/23 00:45:46;;;;;;;1.47;0.80;;;;;;;8.88;68.77;94304.78;5050121;28;20508;-68
2024/02/23 00:48:12;;;;;;;1.27;0.70;;;;;;;8.82;69.15;94318.31;5047686;28;20183;-68
2024/02/23 00:50:38;;;;;;;1.37;0.93;;;;;;;8.64;69.38;94331.72;5042016;28;20206;-67
2024/02/23 00:53:03;;;;;;;1.83;1.00;;;;;;;8.66;69.88;94348.13;5045076;28;20503;-68
2024/02/23 00:55:29;;;;;;;1.40;1.00;;;;;;;8.78;71.16;94353.47;5049267;28;20237;-67
2024/02/23 00:57:54;;;;;;;1.53;0.80;;;;;;;8.55;70.76;94362.88;5029104;28;20657;-68
2024/02/23 01:00:20;;;;;;;1.43;1.00;;;;;;;8.42;68.89;94382.03;5046232;28;20207;-68
2024/02/23 01:02:45;;;;;;;1.10;0.70;;;;;;;8.30;69.15;94382.00;5046310;28;20217;-67
2024/02/23 01:05:10;;;;;;;1.70;0.80;;;;;;;8.43;67.29;94393.31;5046140;28;20269;-68
2024/02/23 01:07:36;;;;;;;1.57;0.83;;;;;;;8.26;67.27;94397.84;5048810;28;20232;-68
2024/02/23 01:10:01;;;;;;;1.43;0.90;;;;;;;8.16;67.22;94404.66;5042328;28;20223;-68
2024/02/23 01:12:27;;;;;;;1.40;0.80;;;;;;;8.02;66.45;94397.72;5046807;28;20186;-67
2024/02/23 01:14:53;;;;;;;1.37;0.90;;;;;;;7.79;65.87;94404.44;5042139;28;20209;-66
2024/02/23 01:17:18;;;;;;;2.83;0.80;;;;;;;7.63;66.55;94414.22;5044718;28;20189;-66
2024/02/23 01:19:44;;;;;;;1.50;0.90;;;;;;;7.62;67.35;94415.16;5047550;28;20449;-68
2024/02/23 01:22:10;;;;;;;1.93;0.80;;;;;;;7.62;65.98;94413.38;5047542;28;20304;-68
2024/02/23 01:24:36;;;;;;;2.50;0.80;;;;;;;7.62;66.26;94417.75;5046841;28;20445;-68
2024/02/23 01:27:01;;;;;;;1.43;0.60;;;;;;;7.58;67.14;94426.72;5044716;28;20207;-68
2024/02/23 01:29:26;;;;;;;1.27;0.80;;;;;;;7.62;66.43;94412.53;5046396;28;20735;-68
2024/02/23 01:31:54;;;;;;;2.50;1.07;;;;;;;7.49;66.58;94414.25;5045344;28;20175;-67
2024/02/23 01:34:22;;;;;;;1.57;0.90;;;;;;;7.55;66.47;94409.47;5048398;28;20202;-67
2024/02/23 01:36:48;;;;;;;2.13;1.00;;;;;;;7.40;66.60;94406.06;5043054;28;20445;-68
2024/02/23 01:39:13;;;;;;;2.30;0.93;;;;;;;7.40;66.37;94402.63;5042591;28;20456;-67
2024/02/23 01:41:39;;;;;;;1.77;1.30;;;;;;;7.30;66.47;94410.22;5040203;28;20211;-67
2024/02/23 01:44:04;;;;;;;1.80;0.80;;;;;;;7.34;65.94;94406.44;5048968;28;20618;-66
2024/02/23 01:46:30;;;;;;;2.33;0.80;;;;;;;7.34;66.69;94411.66;5047161;28;20228;-66
2024/02/23 01:48:57;;;;;;;2.17;1.43;;;;;;;7.37;65.89;94421.94;5048177;28;20190;-66
2024/02/23 01:51:22;;;;;;;2.70;0.77;;;;;;;7.38;65.98;94415.78;5046075;28;20792;-68
2024/02/23 01:53:47;;;;;;;1.40;0.80;;;;;;;7.41;64.81;94415.56;5041737;28;20558;-71
2024/02/23 01:56:17;;;;;;;1.83;0.60;;;;;;;7.37;66.28;94431.50;5048129;28;20193;-68
2024/02/23 01:58:43;;;;;;;1.00;0.70;;;;;;;7.54;65.39;94435.69;5043659;28;20185;-67
2024/02/23 02:01:09;;;;;;;1.10;0.70;;;;;;;7.40;65.90;94432.16;5028102;28;20960;-69
2024/02/23 02:03:35;;;;;;;1.07;0.60;;;;;;;7.47;65.73;94431.78;5039773;28;20646;-72
2024/02/23 02:06:00;;;;;;;1.10;0.70;;;;;;;7.52;65.18;94429.72;5044088;28;20313;-67
2024/02/23 02:08:26;;;;;;;0.93;0.67;;;;;;;7.44;65.77;94440.66;5046304;28;20512;-67
2024/02/23 02:10:51;;;;;;;3.53;1.00;;;;;;;7.42;65.41;94439.91;5046812;28;20658;-67
2024/02/23 02:13:17;;;;;;;0.90;0.70;;;;;;;7.39;65.46;94427.91;5046849;28;20183;-67
2024/02/23 02:15:43;;;;;;;2.90;0.60;;;;;;;7.42;65.37;94421.66;5047822;28;20179;-67
2024/02/23 02:18:09;;;;;;;1.10;0.70;;;;;;;7.35;64.46;94434.25;5046323;28;20186;-67
2024/02/23 02:20:36;;;;;;;6.50;1.27;;;;;;;7.46;64.30;94438.75;5046679;28;20502;-67
2024/02/23 02:23:01;;;;;;;1.23;0.87;;;;;;;7.40;65.33;94434.78;5042918;28;20446;-67
2024/02/23 02:25:27;;;;;;;1.03;0.70;;;;;;;7.56;64.84;94423.34;5044239;28;20448;-68
2024/02/23 02:27:52;;;;;;;1.20;0.70;;;;;;;7.40;64.63;94424.34;5042220;28;20270;-68
2024/02/23 02:30:17;;;;;;;1.90;1.03;;;;;;;7.50;64.72;94423.75;5043108;28;20377;-67
2024/02/23 02:32:43;;;;;;;1.23;0.70;;;;;;;7.61;64.43;94421.31;5045450;28;20270;-67
2024/02/23 02:35:11;;;;;;;2.30;0.80;;;;;;;7.59;63.80;94416.19;5044416;28;20187;-68
2024/02/23 02:37:37;;;;;;;1.10;0.70;;;;;;;7.61;64.67;94439.59;5046910;28;20273;-66
2024/02/23 02:40:03;;;;;;;1.43;0.60;;;;;;;7.43;65.18;94441.56;5044866;28;20543;-66
2024/02/23 02:42:28;;;;;;;1.00;0.70;;;;;;;7.39;65.20;94443.56;5046509;28;20178;-67
2024/02/23 02:44:54;;;;;;;1.00;0.60;;;;;;;7.36;65.29;94446.34;5045344;28;20806;-67
2024/02/23 02:47:19;;;;;;;2.03;0.70;;;;;;;7.35;65.74;94428.19;5045511;28;20183;-68
2024/02/23 02:49:45;;;;;;;1.60;0.70;;;;;;;7.29;65.30;94434.59;5046917;28;20207;-67
2024/02/23 02:52:10;;;;;;;1.00;0.60;;;;;;;7.39;64.72;94433.13;5041968;28;20216;-66
2024/02/23 02:54:36;;;;;;;1.00;0.70;;;;;;;7.29;65.86;94426.78;5047558;28;20187;-66
2024/02/23 02:57:01;;;;;;;4.10;1.10;;;;;;;7.36;64.81;94430.69;5039145;28;20188;-67
2024/02/23 02:59:26;;;;;;;0.90;0.60;;;;;;;7.37;65.76;94421.94;5035606;28;20306;-67
2024/02/23 03:01:52;;;;;;;1.40;0.70;;;;;;;7.27;66.07;94420.00;5042949;28;20283;-67
2024/02/23 03:04:17;;;;;;;1.10;0.70;;;;;;;7.45;65.50;94412.78;5037331;28;20650;-67
2024/02/23 03:06:43;;;;;;;1.50;0.80;;;;;;;7.33;65.50;94414.41;5041175;28;20207;-68
2024/02/23 03:09:08;;;;;;;2.00;0.70;;;;;;;7.39;65.26;94417.47;5048414;28;20642;-67
2024/02/23 03:11:34;;;;;;;1.57;1.00;;;;;;;7.21;66.09;94411.63;5047962;28;20166;-66
2024/02/23 03:13:59;;;;;;;1.23;0.83;;;;;;;7.38;65.71;94413.16;5052653;28;20179;-67
2024/02/23 03:16:26;;;;;;;4.67;1.30;;;;;;;7.34;65.78;94416.88;5046568;28;20232;-67
2024/02/23 03:18:54;;;;;;;4.37;1.00;;;;;;;7.29;66.84;94426.78;5047435;28;20202;-67
2024/02/23 03:21:19;;;;;;;2.00;0.87;;;;;;;7.36;66.58;94415.03;5037297;28;20473;-66
2024/02/23 03:23:45;;;;;;;2.40;0.80;;;;;;;7.17;66.97;94411.91;5046353;28;20483;-68
2024/02/23 03:26:10;;;;;;;2.90;1.10;;;;;;;7.12;67.37;94414.78;5045884;28;20302;-67
2024/02/23 03:28:35;;;;;;;1.27;0.70;;;;;;;7.03;67.78;94404.09;5046791;28;20762;-67
2024/02/23 03:31:01;;;;;;;1.10;1.00;;;;;;;7.03;67.63;94397.09;5045968;28;20337;-69
2024/02/23 03:33:26;;;;;;;1.20;0.80;;;;;;;7.00;68.15;94408.56;5046715;28;20171;-67
2024/02/23 03:35:52;;;;;;;1.60;1.10;;;;;;;7.04;68.33;94414.44;5046333;28;20159;-67
2024/02/23 03:38:17;;;;;;;0.97;0.70;;;;;;;7.13;67.95;94416.47;5046442;28;20178;-67
2024/02/23 03:40:43;;;;;;;1.60;0.80;;;;;;;7.08;68.51;94412.47;5045853;28;20500;-68
2024/02/23 03:43:08;;;;;;;1.07;0.73;;;;;;;7.17;68.24;94415.34;5042371;28;20182;-67
2024/02/23 03:45:34;;;;;;;1.10;0.70;;;;;;;7.20;68.53;94424.75;5028161;28;20289;-68
2024/02/23 03:48:00;;;;;;;1.03;0.73;;;;;;;7.22;67.92;94422.88;5046092;28;20628;-67
2024/02/23 03:50:25;;;;;;;1.23;0.80;;;;;;;7.12;68.56;94424.41;5046089;28;20281;-67
2024/02/23 03:52:51;;;;;;;1.10;0.80;;;;;;;7.13;68.27;94421.69;5045707;28;20413;-68
2024/02/23 03:55:16;;;;;;;1.10;0.87;;;;;;;7.15;68.18;94416.38;5041601;28;20182;-67
2024/02/23 03:57:41;;;;;;;1.00;0.80;;;;;;;7.16;67.87;94412.84;5045847;28;20909;-66
2024/02/23 04:00:08;;;;;;;1.37;0.80;;;;;;;7.08;68.31;94404.66;5045518;28;20194;-66
2024/02/23 04:02:34;;;;;;;1.50;0.87;;;;;;;7.16;67.26;94410.25;5046456;28;20181;-67
2024/02/23 04:04:59;;;;;;;5.30;1.30;;;;;;;7.20;68.06;94427.34;5043922;28;20425;-67
2024/02/23 04:07:25;;;;;;;1.50;0.90;;;;;;;7.30;66.99;94423.25;5052108;28;20178;-68
2024/02/23 04:09:52;;;;;;;1.60;1.17;;;;;;;7.17;67.46;94427.56;5058062;28;20197;-68
2024/02/23 04:12:21;;;;;;;1.10;0.83;;;;;;;7.26;66.80;94428.75;5058659;28;20198;-68
2024/02/23 04:14:47;;;;;;;1.00;0.80;;;;;;;7.21;67.10;94431.66;5054988;28;20405;-68
2024/02/23 04:17:13;;;;;;;0.87;0.60;;;;;;;7.06;67.12;94433.41;5046280;28;20484;-67
2024/02/23 04:19:38;;;;;;;0.90;0.60;;;;;;;7.00;68.34;94439.03;5049774;28;20201;-68
2024/02/23 04:22:08;;;;;;;1.10;0.67;;;;;;;7.05;68.37;94442.19;5042848;28;20357;-67
2024/02/23 04:24:34;;;;;;;2.80;0.87;;;;;;;6.86;68.71;94442.47;5048217;28;20248;-65
2024/02/23 04:26:59;;;;;;;1.50;0.80;;;;;;;7.00;68.44;94439.88;5046777;28;21126;-68
2024/02/23 04:29:25;;;;;;;4.63;0.80;;;;;;;6.83;68.78;94447.88;5044689;28;20201;-68
2024/02/23 04:31:50;;;;;;;4.23;0.90;;;;;;;6.96;68.66;94448.81;5044178;28;20257;-68
2024/02/23 04:34:18;;;;;;;1.53;0.80;;;;;;;7.00;68.70;94437.25;5044732;28;20483;-68
2024/02/23 04:36:44;;;;;;;1.00;0.70;;;;;;;7.05;67.76;94430.94;5037571;28;20202;-67
2024/02/23 04:39:09;;;;;;;2.17;0.90;;;;;;;7.06;68.34;94443.03;5045691;28;21080;-67
2024/02/23 04:41:35;;;;;;;1.20;0.70;;;;;;;7.07;67.83;94437.72;5044635;28;20209;-67
2024/02/23 04:44:01;;;;;;;1.30;0.77;;;;;;;7.06;67.80;94437.81;5045327;28;20171;-68
2024/02/23 04:46:27;;;;;;;2.03;1.00;;;;;;;7.13;68.09;94426.88;5045290;28;20162;-68
2024/02/23 04:48:52;;;;;;;1.77;0.90;;;;;;;7.17;68.56;94428.38;5045383;28;20416;-68
2024/02/23 04:51:18;;;;;;;2.13;1.00;;;;;;;7.20;68.25;94429.97;5043449;28;20195;-68
2024/02/23 04:53:43;;;;;;;1.33;1.00;;;;;;;7.11;67.76;94438.34;5044509;28;20301;-67
2024/02/23 04:56:09;;;;;;;3.10;1.40;;;;;;;7.00;68.88;94428.59;5045121;28;20888;-67
2024/02/23 04:58:34;;;;;;;2.70;1.47;;;;;;;7.18;67.95;94421.38;5045551;28;20260;-66
2024/02/23 05:01:00;;;;;;;2.00;1.30;;;;;;;7.20;68.27;94420.38;5044022;28;20210;-66
2024/02/23 05:03:26;;;;;;;2.20;1.60;;;;;;;6.73;69.60;94428.50;5044953;28;20175;-68
2024/02/23 05:05:53;;;;;;;3.07;1.67;;;;;;;6.95;70.18;94423.66;5045376;28;20254;-67
2024/02/23 05:08:24;;;;;;;2.60;1.70;;;;;;;7.09;68.92;94437.63;5045446;28;20401;-68
2024/02/23 05:10:49;;;;;;;3.40;1.20;;;;;;;7.14;68.97;94436.41;5044625;28;20445;-68
2024/02/23 05:13:15;;;;;;;5.00;2.10;;;;;;;7.19;68.51;94444.78;5044957;28;20523;-68
2024/02/23 05:15:40;;;;;;;3.73;2.13;;;;;;;7.07;68.83;94455.97;5041306;28;20183;-68
2024/02/23 05:18:06;;;;;;;2.43;2.00;;;;;;;7.02;69.56;94454.59;5045263;28;20182;-70
2024/02/23 05:20:31;;;;;;;4.57;1.90;;;;;;;7.14;69.16;94452.06;5036541;28;20216;-68
2024/02/23 05:22:57;;;;;;;2.90;1.80;;;;;;;7.18;69.14;94444.88;5033042;28;20170;-68
2024/02/23 05:25:22;;;;;;;2.10;1.70;;;;;;;7.12;69.17;94422.63;5046901;28;20649;-67
2024/02/23 05:27:47;;;;;;;2.83;1.70;;;;;;;6.98;70.06;94431.28;5048839;28;20167;-67
2024/02/23 05:30:13;;;;;;;2.97;1.90;;;;;;;7.03;70.39;94428.41;5048038;28;20682;-68
2024/02/23 05:32:39;;;;;;;3.00;1.77;;;;;;;7.15;70.10;94438.06;5047907;28;20178;-68
2024/02/23 05:35:05;;;;;;;2.80;1.47;;;;;;;7.09;69.50;94443.69;5043626;28;20190;-69
2024/02/23 05:37:30;;;;;;;3.23;1.47;;;;;;;7.17;69.63;94456.25;5047520;28;20236;-67
2024/02/23 05:39:56;;;;;;;1.60;1.30;;;;;;;7.14;69.27;94453.84;5047778;28;20457;-68
2024/02/23 05:42:21;;;;;;;4.20;1.20;;;;;;;7.17;68.91;94469.28;5047378;28;20201;-68
2024/02/23 05:44:48;;;;;;;2.30;1.10;;;;;;;7.14;69.16;94483.38;5040466;28;20281;-68
2024/02/23 05:47:14;;;;;;;2.77;1.13;;;;;;;7.02;68.97;94491.94;5048701;28;20197;-67
2024/02/23 05:49:39;;;;;;;1.40;1.00;;;;;;;7.03;68.86;94484.94;5044802;28;20458;-68
2024/02/23 05:52:05;;;;;;;1.30;1.10;;;;;;;6.96;69.38;94481.88;5043106;28;20178;-68
2024/02/23 05:54:30;;;;;;;2.07;1.17;;;;;;;7.06;69.18;94476.94;5049071;28;20626;-67
2024/02/23 05:56:56;;;;;;;1.60;1.10;;;;;;;7.04;69.69;94470.97;5048116;28;20241;-68
2024/02/23 05:59:21;;;;;;;4.83;1.50;;;;;;;7.10;69.21;94462.78;5047313;28;20264;-68
2024/02/23 06:01:46;;;;;;;5.30;1.80;;;;;;;7.24;69.11;94467.97;5063361;28;20217;-68
2024/02/23 06:04:12;;;;;;;2.53;1.60;;;;;;;7.14;68.58;94482.53;5058858;28;20189;-67
2024/02/23 06:06:41;;;;;;;2.63;1.50;;;;;;;7.18;68.47;94478.78;5057878;28;20790;-68
2024/02/23 06:09:06;;;;;;;3.80;1.23;;;;;;;7.08;68.92;94483.72;5045853;28;20210;-67
2024/02/23 06:11:32;;;;;;;6.13;2.10;;;;;;;7.22;67.92;94485.50;5045970;28;20505;-68
2024/02/23 06:13:57;;;;;;;2.40;1.43;;;;;;;7.14;68.98;94480.75;5049310;28;20542;-66
2024/02/23 06:16:22;;;;;;;3.60;1.77;;;;;;;7.18;68.79;94490.06;5042133;28;20219;-67
2024/02/23 06:18:48;;;;;;;6.00;1.40;;;;;;;7.27;68.97;94493.88;5047581;28;20174;-67
2024/02/23 06:21:17;;;;;;;3.80;1.50;;;;;;;7.28;67.44;94492.13;5051424;28;20206;-68
2024/02/23 06:23:43;;;;;;;3.37;1.50;;;;;;;7.20;66.87;94497.78;5051953;28;20423;-68
2024/02/23 06:26:10;;;;;;;2.17;1.87;;;;;;;7.08;68.28;94498.53;5046276;28;20479;-67
2024/02/23 06:28:37;;;;;;;6.83;2.00;;;;;;;7.05;68.42;94485.69;5048637;28;20511;-69
2024/02/23 06:31:03;;;;;;;7.03;1.23;;;;;;;6.93;68.47;94488.09;5045756;28;20522;-69
2024/02/23 06:33:30;;;;;;;2.20;1.30;;;;;;;7.04;68.49;94486.59;5046688;28;20422;-69
2024/02/23 06:35:56;;;;;;;1.60;0.93;;;;;;;6.84;68.88;94480.84;5047404;28;20504;-69
2024/02/23 06:38:21;;;;;;;3.10;1.10;;;;;;;6.67;69.65;94481.00;5046747;28;20455;-68
2024/02/23 06:40:47;;;;;;;1.63;1.03;;;;;;;6.68;69.52;94487.88;5037027;28;20611;-69
2024/02/23 06:43:12;;;;;;;1.40;0.90;;;;;;;6.73;69.84;94484.09;5047414;28;20179;-68
2024/02/23 06:45:38;;;;;;;2.00;1.10;;;;;;;6.70;69.74;94486.88;5029310;28;20819;-67
2024/02/23 06:48:03;;;;;;;4.10;1.40;;;;;;;6.86;69.33;94484.19;5046345;28;20540;-69
2024/02/23 06:50:29;;;;;;;1.63;1.07;;;;;;;6.84;69.11;94482.59;5046521;28;20245;-68
2024/02/23 06:52:55;;;;;;;2.97;1.30;;;;;;;6.95;67.75;94494.06;5046254;28;20186;-68
2024/02/23 06:55:20;;;;;;;1.50;1.20;;;;;;;6.95;67.91;94483.63;5038363;28;20194;-68
2024/02/23 06:57:46;;;;;;;3.30;1.27;;;;;;;7.11;67.88;94495.75;5046879;28;20205;-69
2024/02/23 07:00:12;;;;;;;3.20;1.20;;;;;;;7.03;67.96;94514.47;5033277;28;20211;-69
2024/02/23 07:02:38;;;;;;;2.17;1.20;;;;;;;6.97;67.24;94531.34;5045298;28;20413;-68
2024/02/23 07:05:04;;;;;;;1.57;1.30;;;;;;;7.03;66.72;94537.09;5046023;28;20424;-69
2024/02/23 07:07:30;;;;;;;4.50;1.50;;;;;;;6.89;67.30;94530.94;5045693;28;20186;-69
2024/02/23 07:09:56;;;;;;;3.63;1.10;;;;;;;7.08;66.86;94529.84;5045310;28;20267;-68
2024/02/23 07:12:21;;;;;;;4.90;1.60;;;;;;;7.00;66.80;94520.72;5045303;28;20448;-66
2024/02/23 07:14:48;;;;;;;7.70;1.33;;;;;;;7.03;66.93;94511.03;5046395;28;20182;-68
2024/02/23 07:17:17;;;;;;;7.53;1.40;;;;;;;6.84;67.43;94519.13;5043702;28;20231;-69
2024/02/23 07:19:42;;;;;;;3.77;1.50;;;;;;;6.87;67.49;94511.09;5019865;28;20905;-68
2024/02/23 07:22:08;;;;;;;6.43;1.27;;;;;;;6.94;66.87;94509.81;5024777;28;20475;-67
2024/02/23 07:24:33;;;;;;;4.80;1.47;;;;;;;6.88;67.41;94515.41;5026235;28;20209;-68
2024/02/23 07:26:58;;;;;;;4.13;1.20;;;;;;;6.95;67.37;94517.53;5045175;28;20528;-68
2024/02/23 07:29:24;;;;;;;17.87;2.77;;;;;;;7.02;66.44;94504.16;5046083;28;20235;-68
2024/02/23 07:31:49;;;;;;;7.00;1.73;;;;;;;6.99;67.22;94505.13;5026566;28;20178;-69
2024/02/23 07:34:15;;;;;;;2.80;1.40;;;;;;;6.99;66.09;94502.53;5027705;28;20175;-69
2024/02/23 07:36:40;;;;;;;5.60;1.63;;;;;;;7.06;66.50;94508.22;5038948;28;20266;-68
2024/02/23 07:39:06;;;;;;;14.43;2.07;;;;;;;7.01;65.86;94513.72;5049467;28;20290;-67
2024/02/23 07:41:31;;;;;;;2.90;1.17;;;;;;;6.97;66.63;94512.25;5053268;28;20218;-67
2024/02/23 07:43:56;;;;;;;1.40;1.23;;;;;;;7.04;66.64;94505.72;5044906;28;20175;-69
2024/02/23 07:46:22;;;;;;;5.53;1.53;;;;;;;7.16;66.36;94501.53;5044922;28;20171;-68
2024/02/23 07:48:48;;;;;;;6.50;1.57;;;;;;;7.12;66.24;94500.88;5043444;28;20238;-69
2024/02/23 07:51:13;;;;;;;4.80;1.27;;;;;;;7.15;66.04;94495.47;5043401;28;20194;-69
2024/02/23 07:53:39;;;;;;;2.43;1.33;;;;;;;7.12;66.06;94493.03;5044272;28;20175;-68
2024/02/23 07:56:07;;;;;;;2.90;1.33;;;;;;;7.16;66.30;94502.38;5044714;28;20182;-68
2024/02/23 07:58:33;;;;;;;2.17;1.10;;;;;;;7.15;66.19;94505.91;5043700;28;20183;-68
2024/02/23 08:00:58;;;;;;;4.07;1.10;;;;;;;7.16;65.82;94512.81;5044436;28;20457;-68
2024/02/23 08:03:23;;;;;;;5.07;1.90;;;;;;;7.18;65.80;94523.13;5044716;28;20185;-68
2024/02/23 08:05:49;;;;;;;3.40;1.27;;;;;;;7.14;65.36;94524.25;5038822;28;20218;-68
2024/02/23 08:08:14;;;;;;;1.50;1.13;;;;;;;7.04;66.21;94523.97;5044489;28;20363;-68
2024/02/23 08:10:40;;;;;;;2.00;1.67;;;;;;;7.03;66.45;94524.06;5043551;28;20206;-69
2024/02/23 08:13:05;;;;;;;1.83;1.10;;;;;;;7.09;66.63;94523.72;5044222;28;20291;-68
2024/02/23 08:15:31;;;;;;;2.33;1.30;;;;;;;7.13;65.77;94523.41;5044915;28;20596;-67
2024/02/23 08:17:56;;;;;;;7.13;2.20;;;;;;;7.16;65.84;94517.19;5045041;28;20336;-69
2024/02/23 08:20:21;;;;;;;11.10;2.63;;;;;;;7.19;65.26;94522.22;5043900;28;20577;-67
2024/02/23 08:22:47;;;;;;;7.67;1.70;;;;;;;7.07;65.50;94515.97;5044440;28;20182;-68
2024/02/23 08:25:12;;;;;;;5.13;1.90;;;;;;;7.20;65.53;94524.75;5043430;28;20289;-67
2024/02/23 08:27:38;;;;;;;10.13;2.10;;;;;;;7.19;65.04;94533.47;5044472;28;20687;-68
2024/02/23 08:30:04;;;;;;;14.00;2.10;;;;;;;7.15;65.42;94539.81;5043791;28;20622;-68
2024/02/23 08:32:29;;;;;;;7.80;1.90;;;;;;;7.04;66.09;94544.84;5041716;28;20174;-68
2024/02/23 08:34:59;;;;;;;4.30;1.50;;;;;;;7.07;65.28;94538.59;5037583;28;20178;-68
2024/02/23 08:37:27;;;;;;;5.73;1.30;;;;;;;7.11;64.82;94529.66;5040572;28;20202;-68
2024/02/23 08:39:53;;;;;;;5.00;1.80;;;;;;;7.25;64.72;94534.88;5044461;28;20437;-70
2024/02/23 08:42:18;;;;;;;13.80;1.80;;;;;;;7.27;64.74;94530.41;5042642;28;20464;-69
2024/02/23 08:44:43;;;;;;;4.50;1.70;;;;;;;7.28;64.26;94536.47;5044861;28;20178;-67
2024/02/23 08:47:09;;;;;;;5.20;1.20;;;;;;;7.15;64.44;94524.16;5046062;28;20179;-68
2024/02/23 08:49:34;;;;;;;2.67;1.77;;;;;;;7.22;64.21;94524.63;5043928;28;20204;-68
2024/02/23 08:52:00;;;;;;;2.80;1.33;;;;;;;7.26;63.75;94526.13;5043272;28;20646;-69
2024/02/23 08:54:25;;;;;;;3.93;1.63;;;;;;;7.21;64.30;94521.19;5046324;28;20194;-67
2024/02/23 08:56:51;;;;;;;6.53;1.90;;;;;;;7.22;64.46;94520.25;5044387;28;20240;-66
2024/02/23 08:59:16;;;;;;;3.73;1.30;;;;;;;7.23;64.30;94513.28;5052599;28;20414;-69
2024/02/23 09:01:41;;;;;;;6.60;1.93;;;;;;;7.36;63.26;94523.78;5049159;28;20241;-69
2024/02/23 09:04:07;;;;;;;2.03;1.40;;;;;;;7.29;63.00;94528.53;5048938;28;20618;-68
2024/02/23 09:06:32;;;;;;;2.87;1.53;;;;;;;7.30;63.03;94535.44;5057553;28;20183;-68
2024/02/23 09:08:58;;;;;;;5.77;1.90;;;;;;;7.20;63.18;94549.97;5059840;28;20186;-68
2024/02/23 09:11:24;;;;;;;4.50;1.80;;;;;;;7.22;63.53;94564.59;5063013;28;20195;-69
2024/02/23 09:13:49;;;;;;;5.30;1.80;;;;;;;7.20;62.75;94545.59;5063246;28;20171;-67
2024/02/23 09:16:14;;;;;;;3.30;1.50;;;;;;;7.11;62.99;94540.94;5050437;28;20273;-67
2024/02/23 09:18:40;;;;;;;6.17;1.47;;;;;;;7.16;62.74;94527.63;5049921;28;20174;-68
2024/02/23 09:21:06;;;;;;;3.27;1.77;;;;;;;7.25;61.70;94537.47;5030230;28;20205;-67
2024/02/23 09:23:32;;;;;;;2.60;1.23;;;;;;;7.24;61.63;94541.03;5046046;28;20257;-67
2024/02/23 09:25:57;;;;;;;5.30;1.47;;;;;;;7.35;61.12;94541.22;5048911;28;20432;-67
2024/02/23 09:28:23;;;;;;;1.50;1.30;;;;;;;7.24;61.72;94543.63;5049938;28;20190;-66
2024/02/23 09:30:48;;;;;;;2.43;1.30;;;;;;;7.11;61.66;94547.91;5049229;28;20937;-68
2024/02/23 09:33:14;;;;;;;5.00;2.30;;;;;;;7.20;61.93;94560.41;5047624;28;20262;-68
2024/02/23 09:35:39;;;;;;;8.40;3.80;;;;;;;7.29;61.08;94552.00;5048965;28;20220;-68
2024/02/23 09:38:04;;;;;;;7.70;2.20;;;;;;;7.30;59.76;94538.06;5051485;28;20170;-70
2024/02/23 09:40:30;;;;;;;5.70;1.40;;;;;;;7.22;60.38;94538.50;5068063;28;20191;-68
2024/02/23 09:42:57;;;;;;;5.67;1.27;;;;;;;7.21;59.66;94536.00;5070792;28;20201;-70
2024/02/23 09:45:25;;;;;;;10.43;2.93;;;;;;;7.32;59.65;94537.94;5065985;28;20179;-68
2024/02/23 09:47:52;;;;;;;4.07;1.30;;;;;;;7.26;59.39;94543.56;5050323;28;20486;-68
2024/02/23 09:50:21;;;;;;;2.90;1.23;;;;;;;7.17;59.85;94537.94;5047590;28;20786;-68
2024/02/23 09:52:47;;;;;;;3.43;1.60;;;;;;;7.31;59.26;94547.56;5047450;28;21261;-69
2024/02/23 09:55:12;;;;;;;4.30;1.83;;;;;;;7.28;59.05;94546.91;5046941;28;20544;-68
2024/02/23 09:57:39;;;;;;;2.90;1.37;;;;;;;7.18;59.53;94562.25;5049323;28;20844;-68
2024/02/23 10:00:08;;;;;;;8.00;1.60;;;;;;;7.19;59.81;94549.13;5048804;28;20191;-65
2024/02/23 10:02:35;;;;;;;2.37;1.23;;;;;;;7.17;60.13;94553.59;5048117;28;20468;-69
2024/02/23 10:05:02;;;;;;;4.40;2.90;;;;;;;7.25;59.70;94545.31;5048382;28;20538;-69
2024/02/23 10:07:28;;;;;;;3.30;1.67;;;;;;;7.35;59.71;94553.44;5048615;28;20415;-69
2024/02/23 10:09:55;;;;;;;4.33;1.80;;;;;;;7.30;59.11;94553.72;5040302;28;20461;-68
2024/02/23 10:12:20;;;;;;;3.80;1.70;;;;;;;7.43;57.99;94557.22;5043161;28;20175;-67
2024/02/23 10:14:46;;;;;;;5.90;1.80;;;;;;;7.24;58.28;94567.13;5047823;28;20423;-68
2024/02/23 10:17:11;;;;;;;1.80;1.30;;;;;;;7.01;58.71;94578.91;5045218;28;20190;-70
2024/02/23 10:19:38;;;;;;;2.33;1.10;;;;;;;7.27;58.25;94586.97;5046766;28;20218;-69
2024/02/23 10:22:04;;;;;;;4.00;1.53;;;;;;;7.16;58.69;94580.63;5046608;28;20202;-69
2024/02/23 10:24:29;;;;;;;2.93;1.87;;;;;;;7.27;57.37;94585.19;5047817;28;20729;-68
2024/02/23 10:26:55;;;;;;;4.60;1.67;;;;;;;7.33;57.53;94582.22;5046781;28;20428;-67
2024/02/23 10:29:20;;;;;;;5.67;1.93;;;;;;;7.27;57.03;94579.97;5047159;28;20179;-68
2024/02/23 10:31:49;;;;;;;1.50;1.30;;;;;;;7.47;55.96;94580.56;5043239;28;20186;-67
2024/02/23 10:34:17;;;;;;;2.40;1.30;;;;;;;7.42;55.35;94570.41;5042208;28;20179;-67
2024/02/23 10:36:42;;;;;;;6.27;1.80;;;;;;;7.37;55.49;94568.06;5046955;28;20502;-67
2024/02/23 10:39:09;;;;;;;4.33;1.30;;;;;;;7.43;55.48;94572.06;5029043;28;20456;-71
2024/02/23 10:41:39;;;;;;;7.33;1.97;;;;;;;7.32;56.00;94569.25;5045481;28;20234;-68
2024/02/23 10:44:05;;;;;;;6.00;1.87;;;;;;;7.35;55.25;94574.31;5046881;28;20975;-67
2024/02/23 10:46:31;;;;;;;9.33;1.97;;;;;;;7.33;55.36;94578.78;5047175;28;20498;-69
2024/02/23 10:48:59;;;;;;;8.97;1.70;;;;;;;7.43;55.51;94566.84;5046782;28;20420;-69
2024/02/23 10:51:25;;;;;;;7.37;1.90;;;;;;;7.39;55.13;94568.81;5045284;28;20456;-68
2024/02/23 10:53:52;;;;;;;9.53;1.70;;;;;;;7.39;54.77;94563.59;5045416;28;20476;-69
2024/02/23 10:56:18;;;;;;;10.20;2.27;;;;;;;7.46;54.93;94565.81;5046555;28;20183;-68
2024/02/23 10:58:43;;;;;;;1.70;1.30;;;;;;;7.24;55.43;94555.84;5047306;28;20448;-67
2024/02/23 11:01:10;;;;;;;6.53;2.77;;;;;;;7.37;54.91;94560.22;5046110;28;20286;-69
2024/02/23 11:03:38;;;;;;;6.80;1.80;;;;;;;7.31;55.22;94571.03;5028353;28;20198;-68
2024/02/23 11:06:07;;;;;;;5.60;1.40;;;;;;;7.45;54.18;94566.75;5046522;28;20452;-68
2024/02/23 11:08:32;;;;;;;4.00;1.30;;;;;;;7.51;54.37;94572.44;5047033;28;20421;-68
2024/02/23 11:11:07;;;;;;;1.70;1.27;;;;;;;7.47;53.97;94568.34;5045444;28;20440;-68
2024/02/23 11:13:37;;;;;;;5.63;1.30;;;;;;;7.37;54.74;94572.41;5046108;28;20178;-67
2024/02/23 11:16:07;;;;;;;7.97;1.70;;;;;;;7.60;54.18;94573.63;5046283;28;21063;-69
2024/02/23 11:18:39;;;;;;;2.37;1.67;;;;;;;7.65;54.18;94571.56;5046300;28;20456;-68
2024/02/23 11:21:05;;;;;;;7.43;1.53;;;;;;;7.60;53.96;94579.69;5045017;28;20469;-69
2024/02/23 11:23:45;;;;;;;8.20;2.07;;;;;;;7.58;53.94;94586.78;5045765;28;20407;-68
2024/02/23 11:26:12;;;;;;;5.83;1.93;;;;;;;7.68;53.52;94578.38;5045113;28;20592;-68
2024/02/23 11:28:49;;;;;;;4.80;1.67;;;;;;;7.58;54.82;94581.56;5046117;28;20525;-68
2024/02/23 11:31:15;;;;;;;4.70;1.50;;;;;;;7.52;54.48;94575.88;5045169;28;20437;-67
2024/02/23 11:33:48;;;;;;;6.20;1.90;;;;;;;7.49;54.25;94568.22;5045538;28;20449;-68
2024/02/23 11:36:28;;;;;;;3.60;1.30;;;;;;;7.67;54.34;94580.16;5045670;28;20436;-68